Time;durP1;ratioP1;P1;durP2;ratioP2;P2;SDS_P1;SDS_P2;PMS_P1;PMS_P2;Temp;Humidity;BMP_temperature;BMP_pressure;BME280_temperature;BME280_humidity;BME280_pressure;Samples;Min_cycle;Max_cycle;Signal;HPM_P1;HPM_P2
2023/12/06 00:00:37;;;;;;;46.17;27.83;;;1.00;95.70;;;;;;5097520;28;20666;-73
2023/12/06 00:03:03;;;;;;;47.78;28.92;;;1.00;95.70;;;;;;5101848;28;20418;-73
2023/12/06 00:05:29;;;;;;;51.45;29.35;;;1.00;95.70;;;;;;5105477;28;20570;-73
2023/12/06 00:07:55;;;;;;;45.80;28.00;;;1.00;95.80;;;;;;5094706;28;20568;-73
2023/12/06 00:10:21;;;;;;;49.57;28.70;;;1.00;95.80;;;;;;5067979;28;20856;-73
2023/12/06 00:12:46;;;;;;;49.67;29.07;;;1.10;95.90;;;;;;5076407;28;20528;-73
2023/12/06 00:15:12;;;;;;;47.35;27.70;;;1.10;95.90;;;;;;5102002;28;20798;-73
2023/12/06 00:17:38;;;;;;;45.57;27.73;;;1.10;96.20;;;;;;5079239;28;20490;-73
2023/12/06 00:20:04;;;;;;;46.27;27.40;;;1.10;96.00;;;;;;5088074;28;20450;-73
2023/12/06 00:22:30;;;;;;;47.05;28.15;;;1.10;96.00;;;;;;5088169;28;20398;-73
2023/12/06 00:24:56;;;;;;;50.00;28.73;;;1.10;96.10;;;;;;5082366;28;20419;-73
2023/12/06 00:27:21;;;;;;;47.80;28.20;;;1.10;96.20;;;;;;5079618;28;20497;-73
2023/12/06 00:29:47;;;;;;;49.17;28.10;;;1.10;96.30;;;;;;5089039;28;20496;-73
2023/12/06 00:32:13;;;;;;;48.13;28.58;;;1.10;96.30;;;;;;5099172;28;20408;-73
2023/12/06 00:34:38;;;;;;;50.43;28.73;;;1.10;96.30;;;;;;5089904;28;20933;-73
2023/12/06 00:37:04;;;;;;;48.38;27.42;;;1.10;96.30;;;;;;5070854;28;20496;-73
2023/12/06 00:39:30;;;;;;;50.20;29.20;;;1.10;96.30;;;;;;5087756;28;20426;-73
2023/12/06 00:41:56;;;;;;;51.53;29.73;;;1.10;96.40;;;;;;5083149;28;20431;-73
2023/12/06 00:44:21;;;;;;;52.97;29.48;;;1.10;96.40;;;;;;5078386;28;20406;-73
2023/12/06 00:46:47;;;;;;;50.57;29.50;;;1.20;96.50;;;;;;5087453;28;20402;-73
2023/12/06 00:49:13;;;;;;;55.27;30.50;;;1.20;96.60;;;;;;5087518;28;20832;-73
2023/12/06 00:51:39;;;;;;;52.75;30.02;;;1.20;96.60;;;;;;5086809;28;20400;-73
2023/12/06 00:54:05;;;;;;;53.33;30.23;;;1.20;96.60;;;;;;5106309;28;20869;-73
2023/12/06 00:56:31;;;;;;;54.50;30.20;;;1.20;96.70;;;;;;5106374;28;20408;-73
2023/12/06 00:58:56;;;;;;;54.90;30.55;;;1.20;96.70;;;;;;5106439;28;20419;-73
2023/12/06 01:01:22;;;;;;;55.97;30.02;;;1.20;96.80;;;;;;5103977;28;20435;-73
2023/12/06 01:03:48;;;;;;;54.47;29.83;;;1.20;96.80;;;;;;5106928;28;20396;-73
2023/12/06 01:06:13;;;;;;;55.30;29.52;;;1.20;96.80;;;;;;5085944;28;20411;-73
2023/12/06 01:08:39;;;;;;;56.33;30.02;;;1.20;96.80;;;;;;5105465;28;20396;-73
2023/12/06 01:11:05;;;;;;;55.37;29.77;;;1.20;96.80;;;;;;5101443;28;20417;-73
2023/12/06 01:13:31;;;;;;;55.22;29.40;;;1.20;96.90;;;;;;5104543;28;20404;-73
2023/12/06 01:15:57;;;;;;;58.60;30.35;;;1.30;97.00;;;;;;5097683;28;20402;-73
2023/12/06 01:18:22;;;;;;;55.77;29.17;;;1.20;97.00;;;;;;5079370;28;20749;-73
2023/12/06 01:20:48;;;;;;;55.63;29.50;;;1.20;97.00;;;;;;5072989;28;20494;-73
2023/12/06 01:23:14;;;;;;;57.72;30.67;;;1.20;97.10;;;;;;5094013;28;20458;-73
2023/12/06 01:25:39;;;;;;;60.30;30.90;;;1.20;97.10;;;;;;5096318;28;20401;-73
2023/12/06 01:28:05;;;;;;;56.87;29.37;;;1.20;97.10;;;;;;5099311;28;20519;-73
2023/12/06 01:30:30;;;;;;;56.05;29.60;;;1.20;97.20;;;;;;5102144;28;20465;-73
2023/12/06 01:32:56;;;;;;;58.60;30.57;;;1.20;97.20;;;;;;5103916;28;20416;-73
2023/12/06 01:35:22;;;;;;;60.50;30.17;;;1.30;97.30;;;;;;5089748;28;20401;-73
2023/12/06 01:37:47;;;;;;;58.83;30.65;;;1.30;97.30;;;;;;5104904;28;20412;-73
2023/12/06 01:40:13;;;;;;;59.87;30.37;;;1.30;97.30;;;;;;5102318;28;20832;-73
2023/12/06 01:42:38;;;;;;;60.30;30.73;;;1.20;97.30;;;;;;5105173;28;20439;-73
2023/12/06 01:45:05;;;;;;;64.32;31.02;;;1.30;97.40;;;;;;5102176;28;20532;-73
2023/12/06 01:47:33;;;;;;;62.20;31.02;;;1.20;97.40;;;;;;5103803;28;20407;-73
2023/12/06 01:50:04;;;;;;;59.05;29.65;;;1.30;97.40;;;;;;5102976;28;20409;-73
2023/12/06 01:52:29;;;;;;;57.53;29.80;;;1.20;97.40;;;;;;5091305;28;20402;-73
2023/12/06 01:54:58;;;;;;;56.78;29.85;;;1.30;97.50;;;;;;5105472;28;20810;-73
2023/12/06 01:57:28;;;;;;;60.80;30.35;;;1.30;97.50;;;;;;5100420;28;20466;-73
2023/12/06 01:59:56;;;;;;;56.03;29.42;;;1.30;97.50;;;;;;5096575;28;20465;-73
2023/12/06 02:02:22;;;;;;;60.28;29.48;;;1.30;97.60;;;;;;5088099;28;20415;-73
2023/12/06 02:04:48;;;;;;;54.53;28.85;;;1.30;97.60;;;;;;5086841;28;20412;-73
2023/12/06 02:07:16;;;;;;;51.75;28.58;;;1.30;97.70;;;;;;5100381;28;20420;-73
2023/12/06 02:09:41;;;;;;;55.05;28.23;;;1.30;97.70;;;;;;5094341;28;20493;-73
2023/12/06 02:12:07;;;;;;;48.33;25.88;;;1.30;97.70;;;;;;5099251;28;20915;-73
2023/12/06 02:14:35;;;;;;;51.80;27.13;;;1.30;97.80;;;;;;5104065;28;20401;-73
2023/12/06 02:17:05;;;;;;;50.75;26.55;;;1.30;97.80;;;;;;5101130;28;20409;-73
2023/12/06 02:19:31;;;;;;;50.97;26.58;;;1.30;97.80;;;;;;5104034;28;20450;-73
2023/12/06 02:21:58;;;;;;;51.95;25.92;;;1.30;97.90;;;;;;5099814;28;20412;-73
2023/12/06 02:24:28;;;;;;;47.10;24.65;;;1.30;97.90;;;;;;5103917;28;20396;-73
2023/12/06 02:26:54;;;;;;;46.55;25.65;;;1.30;98.00;;;;;;5089004;28;20394;-73
2023/12/06 02:29:20;;;;;;;45.22;24.65;;;1.40;98.10;;;;;;5104470;28;20408;-73
2023/12/06 02:31:46;;;;;;;43.10;23.83;;;1.40;98.10;;;;;;5103413;28;20479;-73
2023/12/06 02:34:16;;;;;;;42.45;23.08;;;1.40;98.10;;;;;;5095190;28;20473;-73
2023/12/06 02:36:45;;;;;;;41.70;23.20;;;1.40;98.10;;;;;;5089998;28;20408;-73
2023/12/06 02:39:10;;;;;;;41.22;22.55;;;1.40;98.20;;;;;;5103205;28;20416;-72
2023/12/06 02:41:36;;;;;;;41.65;22.00;;;1.40;98.20;;;;;;5101366;28;20440;-73
2023/12/06 02:44:02;;;;;;;39.60;22.27;;;1.40;98.20;;;;;;5103835;28;20933;-73
2023/12/06 02:46:28;;;;;;;38.53;21.63;;;1.40;98.30;;;;;;5083834;28;20428;-73
2023/12/06 02:48:53;;;;;;;35.67;20.95;;;1.40;98.30;;;;;;5104183;28;20406;-73
2023/12/06 02:51:22;;;;;;;38.90;21.05;;;1.40;98.30;;;;;;5100218;28;20448;-73
2023/12/06 02:53:49;;;;;;;35.75;20.75;;;1.40;98.30;;;;;;5101812;28;20412;-73
2023/12/06 02:56:15;;;;;;;36.42;20.65;;;1.40;98.30;;;;;;5095753;28;20460;-73
2023/12/06 02:58:40;;;;;;;31.90;18.70;;;1.40;98.40;;;;;;5096058;28;20408;-72
2023/12/06 03:01:06;;;;;;;32.35;18.45;;;1.40;98.40;;;;;;5101735;28;20496;-73
2023/12/06 03:03:32;;;;;;;28.53;16.97;;;1.40;98.50;;;;;;5096553;28;20409;-73
2023/12/06 03:05:57;;;;;;;26.70;16.73;;;1.50;98.60;;;;;;5102628;28;20404;-73
2023/12/06 03:08:23;;;;;;;26.30;16.60;;;1.50;98.60;;;;;;5104351;28;20401;-73
2023/12/06 03:10:48;;;;;;;27.00;16.37;;;1.50;98.60;;;;;;5084923;28;20400;-73
2023/12/06 03:13:14;;;;;;;24.83;15.68;;;1.50;98.70;;;;;;5104206;28;20508;-73
2023/12/06 03:15:39;;;;;;;26.55;15.88;;;1.50;98.70;;;;;;5099940;28;20440;-73
2023/12/06 03:18:05;;;;;;;24.70;14.97;;;1.50;98.70;;;;;;5103459;28;20447;-73
2023/12/06 03:20:31;;;;;;;23.92;15.10;;;1.60;98.70;;;;;;5099555;28;20438;-73
2023/12/06 03:22:56;;;;;;;23.33;14.50;;;1.60;98.70;;;;;;5096494;28;20410;-73
2023/12/06 03:25:22;;;;;;;22.73;14.63;;;1.60;98.60;;;;;;5089441;28;20438;-73
2023/12/06 03:27:47;;;;;;;25.25;14.38;;;1.60;98.60;;;;;;5101240;28;20483;-73
2023/12/06 03:30:13;;;;;;;21.47;14.30;;;1.60;98.70;;;;;;5104473;28;20499;-73
2023/12/06 03:32:39;;;;;;;23.85;14.85;;;1.60;98.70;;;;;;5096447;28;20406;-73
2023/12/06 03:35:05;;;;;;;23.75;15.10;;;1.60;98.70;;;;;;5076618;28;20761;-73
2023/12/06 03:37:30;;;;;;;24.77;15.23;;;1.60;98.60;;;;;;5107617;28;20404;-73
2023/12/06 03:39:56;;;;;;;21.73;13.97;;;1.60;98.70;;;;;;5103274;28;20492;-74
2023/12/06 03:42:21;;;;;;;24.23;15.07;;;1.60;98.50;;;;;;5106514;28;20404;-73
2023/12/06 03:44:47;;;;;;;25.02;15.55;;;1.60;98.60;;;;;;5103042;28;20404;-73
2023/12/06 03:47:13;;;;;;;26.40;15.53;;;1.60;98.60;;;;;;5105863;28;20777;-73
2023/12/06 03:49:38;;;;;;;25.17;15.20;;;1.60;98.70;;;;;;5103811;28;20400;-73
2023/12/06 03:52:04;;;;;;;25.13;15.35;;;1.60;98.70;;;;;;5105984;28;20898;-73
2023/12/06 03:54:31;;;;;;;25.25;15.73;;;1.60;98.70;;;;;;5103130;28;20412;-73
2023/12/06 03:56:57;;;;;;;24.90;15.65;;;1.60;98.70;;;;;;5106095;28;20408;-73
2023/12/06 03:59:22;;;;;;;24.87;15.00;;;1.60;98.60;;;;;;5100601;28;20429;-73
2023/12/06 04:01:48;;;;;;;25.75;15.98;;;1.50;98.60;;;;;;5095680;28;20418;-73
2023/12/06 04:04:14;;;;;;;27.55;15.77;;;1.50;98.70;;;;;;5100061;28;20770;-73
2023/12/06 04:06:39;;;;;;;26.13;16.00;;;1.60;98.70;;;;;;5105126;28;20980;-73
2023/12/06 04:09:06;;;;;;;28.97;16.93;;;1.60;98.80;;;;;;5089151;28;20419;-73
2023/12/06 04:11:33;;;;;;;27.90;16.57;;;1.60;99.10;;;;;;5095873;28;20963;-73
2023/12/06 04:13:58;;;;;;;26.90;16.15;;;1.60;98.90;;;;;;5101113;28;20400;-73
2023/12/06 04:16:24;;;;;;;25.77;16.23;;;1.60;98.90;;;;;;5106258;28;20420;-73
2023/12/06 04:18:49;;;;;;;27.52;16.33;;;1.60;98.90;;;;;;5098123;28;20467;-73
2023/12/06 04:21:16;;;;;;;27.00;16.30;;;1.60;98.90;;;;;;5098905;28;20428;-73
2023/12/06 04:23:42;;;;;;;27.63;17.25;;;1.60;98.90;;;;;;5090514;28;20453;-73
2023/12/06 04:26:07;;;;;;;29.80;16.98;;;1.60;98.90;;;;;;5092650;28;20406;-73
2023/12/06 04:28:33;;;;;;;29.83;16.48;;;1.60;98.90;;;;;;5104445;28;20437;-73
2023/12/06 04:30:58;;;;;;;29.73;16.63;;;1.60;99.00;;;;;;5106203;28;20400;-73
2023/12/06 04:33:24;;;;;;;31.00;17.25;;;1.60;99.00;;;;;;5104753;28;20459;-73
2023/12/06 04:35:50;;;;;;;29.17;17.13;;;1.60;99.00;;;;;;5107763;28;20404;-73
2023/12/06 04:38:15;;;;;;;30.13;17.03;;;1.60;99.00;;;;;;5085817;28;20404;-73
2023/12/06 04:40:41;;;;;;;33.70;17.47;;;1.60;99.00;;;;;;5105954;28;20520;-74
2023/12/06 04:43:07;;;;;;;29.40;17.05;;;1.60;99.00;;;;;;5102797;28;20906;-74
2023/12/06 04:45:32;;;;;;;30.53;17.37;;;1.60;99.10;;;;;;5105709;28;20400;-74
2023/12/06 04:47:58;;;;;;;32.03;17.80;;;1.60;99.10;;;;;;5101594;28;20826;-73
2023/12/06 04:50:24;;;;;;;30.35;17.23;;;1.60;99.10;;;;;;5105275;28;20405;-74
2023/12/06 04:52:49;;;;;;;31.70;17.70;;;1.60;99.00;;;;;;5101909;28;20428;-73
2023/12/06 04:55:15;;;;;;;29.03;17.57;;;1.60;99.10;;;;;;5103908;28;20436;-74
2023/12/06 04:57:40;;;;;;;31.33;17.42;;;1.60;99.10;;;;;;5082922;28;20453;-73
2023/12/06 05:00:08;;;;;;;30.70;17.97;;;1.60;99.20;;;;;;5104863;28;20416;-73
2023/12/06 05:02:34;;;;;;;31.08;17.75;;;1.60;99.20;;;;;;5099711;28;20406;-74
2023/12/06 05:05:00;;;;;;;32.28;17.92;;;1.60;99.20;;;;;;5103766;28;20477;-73
2023/12/06 05:07:26;;;;;;;31.73;17.33;;;1.60;99.20;;;;;;5100050;28;20440;-73
2023/12/06 05:09:51;;;;;;;33.00;17.93;;;1.60;99.20;;;;;;5102500;28;20404;-74
2023/12/06 05:12:17;;;;;;;28.25;17.05;;;1.60;99.20;;;;;;5088568;28;20406;-73
2023/12/06 05:14:43;;;;;;;30.80;17.43;;;1.70;99.30;;;;;;5102683;28;20408;-74
2023/12/06 05:17:08;;;;;;;30.77;16.83;;;1.60;99.30;;;;;;5096653;28;20406;-73
2023/12/06 05:19:34;;;;;;;28.83;17.30;;;1.70;99.30;;;;;;5103429;28;20433;-73
2023/12/06 05:22:00;;;;;;;37.60;17.98;;;1.60;99.30;;;;;;5095098;28;20421;-73
2023/12/06 05:24:25;;;;;;;30.50;17.23;;;1.70;99.40;;;;;;5094802;28;20981;-73
2023/12/06 05:26:51;;;;;;;30.90;18.03;;;1.60;99.30;;;;;;5088837;28;20487;-73
2023/12/06 05:29:17;;;;;;;29.77;17.33;;;1.70;99.40;;;;;;5106047;28;20902;-73
2023/12/06 05:31:42;;;;;;;31.77;17.57;;;1.70;99.40;;;;;;5101987;28;20425;-74
2023/12/06 05:34:08;;;;;;;31.13;17.83;;;1.70;99.40;;;;;;5103862;28;20400;-73
2023/12/06 05:36:33;;;;;;;28.55;17.73;;;1.70;99.40;;;;;;5101674;28;20406;-73
2023/12/06 05:38:59;;;;;;;32.53;17.70;;;1.70;99.50;;;;;;5105097;28;20762;-73
2023/12/06 05:41:25;;;;;;;29.77;17.47;;;1.70;99.50;;;;;;5100024;28;20978;-74
2023/12/06 05:43:50;;;;;;;29.52;17.20;;;1.70;99.50;;;;;;5103670;28;20396;-73
2023/12/06 05:46:16;;;;;;;33.47;17.45;;;1.70;99.50;;;;;;5080964;28;20830;-73
2023/12/06 05:48:42;;;;;;;29.37;17.20;;;1.70;99.50;;;;;;5094219;28;20428;-73
2023/12/06 05:51:07;;;;;;;29.40;17.08;;;1.70;99.50;;;;;;5088428;28;20414;-73
2023/12/06 05:53:33;;;;;;;30.63;18.03;;;1.70;99.50;;;;;;5102644;28;20466;-73
2023/12/06 05:55:59;;;;;;;32.30;17.37;;;1.70;99.60;;;;;;5096715;28;20456;-73
2023/12/06 05:58:24;;;;;;;28.23;17.17;;;1.70;99.60;;;;;;5094591;28;20415;-73
2023/12/06 06:00:51;;;;;;;28.98;17.23;;;1.70;99.60;;;;;;5100481;28;20523;-73
2023/12/06 06:03:17;;;;;;;29.80;17.70;;;1.70;99.60;;;;;;5102310;28;20434;-74
2023/12/06 06:05:43;;;;;;;31.17;17.45;;;1.70;99.60;;;;;;5096062;28;20406;-73
2023/12/06 06:08:09;;;;;;;29.55;17.10;;;1.70;99.60;;;;;;5100929;28;20416;-73
2023/12/06 06:10:35;;;;;;;34.50;17.75;;;1.70;99.60;;;;;;5089221;28;20386;-73
2023/12/06 06:13:01;;;;;;;30.67;18.05;;;1.70;99.60;;;;;;5100134;28;20748;-73
2023/12/06 06:15:26;;;;;;;34.83;18.48;;;1.80;99.60;;;;;;5097255;28;20408;-73
2023/12/06 06:17:52;;;;;;;31.33;17.43;;;1.70;99.60;;;;;;5099211;28;20400;-73
2023/12/06 06:20:18;;;;;;;33.50;18.47;;;1.70;99.50;;;;;;5095345;28;20433;-74
2023/12/06 06:22:43;;;;;;;31.38;17.52;;;1.70;99.60;;;;;;5099917;28;20878;-73
2023/12/06 06:25:10;;;;;;;31.80;17.97;;;1.70;99.60;;;;;;5094755;28;20410;-73
2023/12/06 06:27:36;;;;;;;37.88;18.40;;;1.70;99.60;;;;;;5096752;28;20455;-74
2023/12/06 06:30:01;;;;;;;31.13;17.35;;;1.70;99.60;;;;;;5098449;28;20951;-73
2023/12/06 06:32:27;;;;;;;32.85;18.05;;;1.70;99.60;;;;;;5097704;28;20762;-69
2023/12/06 06:34:53;;;;;;;33.13;17.97;;;1.70;99.60;;;;;;5105011;28;20406;-70
2023/12/06 06:37:18;;;;;;;32.47;17.23;;;1.70;99.60;;;;;;5104843;28;20437;-71
2023/12/06 06:39:44;;;;;;;32.05;17.40;;;1.70;99.60;;;;;;5091213;28;20461;-71
2023/12/06 06:42:10;;;;;;;33.83;17.38;;;1.70;99.90;;;;;;5095576;28;20416;-73
2023/12/06 06:44:35;;;;;;;37.27;17.40;;;1.70;99.60;;;;;;5093441;28;20409;-73
2023/12/06 06:47:01;;;;;;;36.03;17.05;;;1.70;99.60;;;;;;5106683;28;21048;-73
2023/12/06 06:49:26;;;;;;;36.47;17.07;;;1.70;99.50;;;;;;5094254;28;20398;-73
2023/12/06 06:51:52;;;;;;;36.67;17.23;;;1.70;99.40;;;;;;5107602;28;20415;-73
2023/12/06 06:54:18;;;;;;;38.55;17.88;;;1.70;99.50;;;;;;5103312;28;20398;-74
2023/12/06 06:56:43;;;;;;;33.13;16.83;;;1.70;99.50;;;;;;5106427;28;20404;-74
2023/12/06 06:59:09;;;;;;;31.90;17.40;;;1.70;99.50;;;;;;5093920;28;20413;-74
2023/12/06 07:01:35;;;;;;;31.43;17.87;;;1.70;99.50;;;;;;5107192;28;21028;-74
2023/12/06 07:04:01;;;;;;;33.07;17.50;;;1.70;99.50;;;;;;5103154;28;20413;-74
2023/12/06 07:06:26;;;;;;;35.10;17.50;;;1.70;99.60;;;;;;5106247;28;20408;-74
2023/12/06 07:08:52;;;;;;;30.57;17.47;;;1.70;99.70;;;;;;5091799;28;20417;-74
2023/12/06 07:11:17;;;;;;;34.60;18.07;;;1.70;99.80;;;;;;5088606;28;20782;-74
2023/12/06 07:13:43;;;;;;;32.67;17.90;;;1.70;99.80;;;;;;5100883;28;20425;-74
2023/12/06 07:16:10;;;;;;;33.03;17.93;;;1.70;99.90;;;;;;5105361;28;20408;-74
2023/12/06 07:18:36;;;;;;;32.90;17.58;;;1.70;99.90;;;;;;5101173;28;20471;-74
2023/12/06 07:21:03;;;;;;;32.87;17.33;;;1.70;99.90;;;;;;5104938;28;20449;-74
2023/12/06 07:23:29;;;;;;;31.08;17.50;;;1.70;99.90;;;;;;5092273;28;20406;-74
2023/12/06 07:25:55;;;;;;;32.83;17.45;;;1.70;99.80;;;;;;5099331;28;20414;-74
2023/12/06 07:28:21;;;;;;;33.72;18.30;;;1.70;99.90;;;;;;5103233;28;20464;-74
2023/12/06 07:30:46;;;;;;;36.97;17.87;;;1.70;99.90;;;;;;5108550;28;20996;-74
2023/12/06 07:33:12;;;;;;;33.93;17.87;;;1.70;99.90;;;;;;5102483;28;20409;-74
2023/12/06 07:35:40;;;;;;;37.15;17.88;;;1.70;99.90;;;;;;5099425;28;20408;-74
2023/12/06 07:38:08;;;;;;;35.15;17.63;;;1.70;99.90;;;;;;5103721;28;20406;-74
2023/12/06 07:40:33;;;;;;;37.83;17.83;;;1.70;99.90;;;;;;5106665;28;20428;-74
2023/12/06 07:42:59;;;;;;;39.50;17.83;;;1.70;99.90;;;;;;5103097;28;20436;-74
2023/12/06 07:45:24;;;;;;;34.30;17.65;;;1.70;99.90;;;;;;5105414;28;20408;-74
2023/12/06 07:47:50;;;;;;;40.00;20.37;;;1.70;99.90;;;;;;5102422;28;20401;-74
2023/12/06 07:50:16;;;;;;;40.53;20.23;;;1.70;99.90;;;;;;5105735;28;20396;-74
2023/12/06 07:52:41;;;;;;;38.97;19.27;;;1.70;99.90;;;;;;5102151;28;20456;-74
2023/12/06 07:55:08;;;;;;;41.77;19.27;;;1.80;99.90;;;;;;5106964;28;20402;-74
2023/12/06 07:57:34;;;;;;;35.47;18.52;;;1.70;99.90;;;;;;5084599;28;20406;-74
2023/12/06 07:59:59;;;;;;;36.75;18.55;;;1.80;99.90;;;;;;5080601;28;20448;-74
2023/12/06 08:02:26;;;;;;;33.88;17.67;;;1.80;99.90;;;;;;5098704;28;20410;-74
2023/12/06 08:04:51;;;;;;;35.35;18.05;;;1.80;99.90;;;;;;5104405;28;20484;-74
2023/12/06 08:07:17;;;;;;;36.97;19.08;;;1.80;99.90;;;;;;5090171;28;20496;-74
2023/12/06 08:09:44;;;;;;;36.35;18.95;;;1.80;99.90;;;;;;5103730;28;20409;-74
2023/12/06 08:12:10;;;;;;;35.05;18.15;;;1.80;99.90;;;;;;5099441;28;20973;-74
2023/12/06 08:14:39;;;;;;;34.20;17.93;;;1.80;99.90;;;;;;5105107;28;20428;-74
2023/12/06 08:17:05;;;;;;;35.13;17.90;;;1.80;99.90;;;;;;5099332;28;20428;-74
2023/12/06 08:19:31;;;;;;;34.58;18.15;;;1.80;99.90;;;;;;5104609;28;20909;-74
2023/12/06 08:21:56;;;;;;;35.33;18.40;;;1.80;99.90;;;;;;5099480;28;20460;-74
2023/12/06 08:24:22;;;;;;;35.23;18.47;;;1.80;99.90;;;;;;5103709;28;20407;-74
2023/12/06 08:26:48;;;;;;;40.65;18.13;;;1.80;99.90;;;;;;5092296;28;20773;-74
2023/12/06 08:29:13;;;;;;;34.60;17.63;;;1.80;99.90;;;;;;5106501;28;20485;-74
2023/12/06 08:31:39;;;;;;;31.13;17.40;;;1.80;99.90;;;;;;5104031;28;20442;-74
2023/12/06 08:34:05;;;;;;;33.10;17.85;;;1.80;99.90;;;;;;5107480;28;20497;-74
2023/12/06 08:36:30;;;;;;;37.08;18.58;;;1.90;99.90;;;;;;5102233;28;20406;-74
2023/12/06 08:38:56;;;;;;;32.77;17.97;;;1.90;99.90;;;;;;5080837;28;20404;-74
2023/12/06 08:41:23;;;;;;;31.85;17.67;;;1.90;99.90;;;;;;5105485;28;20455;-74
2023/12/06 08:43:48;;;;;;;34.05;18.40;;;1.90;99.90;;;;;;5106196;28;20440;-74
2023/12/06 08:46:15;;;;;;;29.10;17.37;;;1.90;99.90;;;;;;5104687;28;20827;-74
2023/12/06 08:48:40;;;;;;;27.30;17.17;;;1.90;99.90;;;;;;5106045;28;20431;-74
2023/12/06 08:51:06;;;;;;;27.20;16.93;;;1.90;99.90;;;;;;5103027;28;20768;-74
2023/12/06 08:53:32;;;;;;;26.20;17.13;;;1.90;99.90;;;;;;5106963;28;20753;-74
2023/12/06 08:55:57;;;;;;;24.92;16.48;;;1.90;99.90;;;;;;5104097;28;20397;-74
2023/12/06 08:58:23;;;;;;;26.50;15.73;;;2.00;99.90;;;;;;5106140;28;20404;-75
2023/12/06 09:00:49;;;;;;;24.08;15.57;;;2.00;99.90;;;;;;5101369;28;20946;-75
2023/12/06 09:03:15;;;;;;;21.07;14.03;;;2.10;99.90;;;;;;5104953;28;20405;-75
2023/12/06 09:05:40;;;;;;;20.25;13.90;;;2.10;99.90;;;;;;5102689;28;20451;-74
2023/12/06 09:08:06;;;;;;;21.90;14.00;;;2.10;99.90;;;;;;5104281;28;20469;-74
2023/12/06 09:10:32;;;;;;;19.73;13.18;;;2.10;99.90;;;;;;5090413;28;20475;-74
2023/12/06 09:12:58;;;;;;;18.10;12.90;;;2.10;99.90;;;;;;5105377;28;20436;-74
2023/12/06 09:15:24;;;;;;;17.73;12.57;;;2.20;99.90;;;;;;5101347;28;20414;-74
2023/12/06 09:17:49;;;;;;;17.75;11.77;;;2.20;99.90;;;;;;5104147;28;20396;-74
2023/12/06 09:20:16;;;;;;;16.65;11.00;;;2.30;99.90;;;;;;5083080;28;20499;-74
2023/12/06 09:22:42;;;;;;;14.25;10.80;;;2.30;99.90;;;;;;5103787;28;20409;-74
2023/12/06 09:25:08;;;;;;;16.33;11.30;;;2.30;99.90;;;;;;5095756;28;20407;-74
2023/12/06 09:27:33;;;;;;;15.30;10.83;;;2.40;99.90;;;;;;5095844;28;20909;-74
2023/12/06 09:29:59;;;;;;;16.23;10.90;;;2.40;99.90;;;;;;5091893;28;20401;-74
2023/12/06 09:32:25;;;;;;;14.88;10.95;;;2.40;99.90;;;;;;5105335;28;20414;-74
2023/12/06 09:34:50;;;;;;;14.97;11.00;;;2.40;99.90;;;;;;5103493;28;20417;-74
2023/12/06 09:37:16;;;;;;;15.67;11.03;;;2.40;99.90;;;;;;5104699;28;20400;-74
2023/12/06 09:39:42;;;;;;;14.98;10.63;;;2.40;99.90;;;;;;5100391;28;20398;-74
2023/12/06 09:42:08;;;;;;;17.27;10.85;;;2.50;99.90;;;;;;5095948;28;20445;-74
2023/12/06 09:44:37;;;;;;;15.77;10.70;;;2.40;99.90;;;;;;5099877;28;20444;-74
2023/12/06 09:47:03;;;;;;;15.63;11.45;;;2.50;99.90;;;;;;5103414;28;20420;-74
2023/12/06 09:49:29;;;;;;;14.80;11.40;;;2.50;99.90;;;;;;5099375;28;20945;-74
2023/12/06 09:52:08;;;;;;;15.05;10.23;;;2.50;99.90;;;;;;5087013;28;20417;-74
2023/12/06 09:54:39;;;;;;;14.30;9.63;;;2.50;99.90;;;;;;5099797;28;20392;-74
2023/12/06 09:57:04;;;;;;;15.63;10.43;;;2.60;99.90;;;;;;5100940;28;20415;-75
2023/12/06 09:59:30;;;;;;;17.07;9.90;;;2.60;99.90;;;;;;5099369;28;20416;-74
2023/12/06 10:01:55;;;;;;;16.33;11.27;;;2.60;99.80;;;;;;5100990;28;20428;-74
2023/12/06 10:04:21;;;;;;;17.02;10.80;;;2.70;99.80;;;;;;5099055;28;20416;-74
2023/12/06 10:06:49;;;;;;;16.90;10.67;;;2.60;99.60;;;;;;5100149;28;20475;-74
2023/12/06 10:09:16;;;;;;;14.57;10.50;;;2.60;99.50;;;;;;5089406;28;20412;-74
2023/12/06 10:11:41;;;;;;;16.55;10.32;;;2.60;99.30;;;;;;5099450;28;20403;-74
2023/12/06 10:14:19;;;;;;;13.52;10.32;;;2.60;99.10;;;;;;5098612;28;20774;-74
2023/12/06 10:16:46;;;;;;;15.48;11.13;;;2.60;99.00;;;;;;5098977;28;20402;-74
2023/12/06 10:19:19;;;;;;;15.60;11.23;;;2.60;99.00;;;;;;5083747;28;20408;-74
2023/12/06 10:21:46;;;;;;;15.20;11.02;;;2.60;99.00;;;;;;5088785;28;20931;-74
2023/12/06 10:24:12;;;;;;;15.20;11.30;;;2.60;99.00;;;;;;5100918;28;20537;-74
2023/12/06 10:26:39;;;;;;;15.55;11.40;;;2.70;98.90;;;;;;5089276;28;20529;-74
2023/12/06 10:29:05;;;;;;;14.80;11.20;;;2.70;98.80;;;;;;5094633;28;20401;-74
2023/12/06 10:31:45;;;;;;;15.90;11.07;;;2.60;98.70;;;;;;5102324;28;20433;-74
2023/12/06 10:34:11;;;;;;;16.35;11.18;;;2.70;98.70;;;;;;5105107;28;20413;-74
2023/12/06 10:36:37;;;;;;;13.60;11.00;;;2.60;98.60;;;;;;5102672;28;20449;-74
2023/12/06 10:39:09;;;;;;;14.50;11.23;;;2.70;98.50;;;;;;5106128;28;20445;-74
2023/12/06 10:41:38;;;;;;;13.27;10.73;;;2.70;98.50;;;;;;5103222;28;20432;-74
2023/12/06 10:44:05;;;;;;;15.55;10.73;;;2.70;98.40;;;;;;5103799;28;20573;-74
2023/12/06 10:46:32;;;;;;;14.20;10.88;;;2.70;98.50;;;;;;5100224;28;20403;-74
2023/12/06 10:49:00;;;;;;;14.50;10.35;;;2.70;98.40;;;;;;5103267;28;20404;-74
2023/12/06 10:51:28;;;;;;;14.90;10.50;;;2.80;98.30;;;;;;5099643;28;20476;-74
2023/12/06 10:53:54;;;;;;;14.85;10.18;;;2.70;98.20;;;;;;5102769;28;20404;-74
2023/12/06 10:56:21;;;;;;;15.07;9.90;;;2.80;98.10;;;;;;5101016;28;20404;-74
2023/12/06 10:58:48;;;;;;;13.65;10.18;;;2.80;98.10;;;;;;5101036;28;20411;-74
2023/12/06 11:01:15;;;;;;;12.88;10.35;;;2.80;98.00;;;;;;5100522;28;20503;-74
2023/12/06 11:03:40;;;;;;;14.57;10.40;;;2.80;97.90;;;;;;5101572;28;20974;-74
2023/12/06 11:06:46;;;;;;;12.55;10.32;;;2.80;97.80;;;;;;5099593;28;20484;-74
2023/12/06 11:09:57;;;;;;;13.82;10.40;;;2.80;97.80;;;;;;5046612;28;20523;-74
2023/12/06 11:12:32;;;;;;;13.48;10.52;;;2.80;97.70;;;;;;5097044;28;20410;-74
2023/12/06 11:15:12;;;;;;;12.38;10.07;;;2.80;97.70;;;;;;5083615;28;20419;-74
2023/12/06 11:17:46;;;;;;;14.52;11.13;;;2.80;97.70;;;;;;5099520;28;20466;-74
2023/12/06 11:20:13;;;;;;;15.13;11.07;;;2.90;97.80;;;;;;5099172;28;20429;-74
2023/12/06 11:22:38;;;;;;;14.43;10.93;;;2.90;97.80;;;;;;5095354;28;20388;-74
2023/12/06 11:25:04;;;;;;;13.60;11.10;;;2.90;97.80;;;;;;5100597;28;20969;-74
2023/12/06 11:27:30;;;;;;;13.57;11.25;;;2.90;97.70;;;;;;5098725;28;20400;-74
2023/12/06 11:29:56;;;;;;;14.85;11.43;;;2.90;97.70;;;;;;5104375;28;20935;-74
2023/12/06 11:32:21;;;;;;;13.18;10.50;;;3.00;97.70;;;;;;5107412;28;20766;-74
2023/12/06 11:34:58;;;;;;;13.77;11.00;;;3.00;97.70;;;;;;5105511;28;20402;-74
2023/12/06 11:37:23;;;;;;;14.55;10.77;;;3.00;97.70;;;;;;5107341;28;20452;-74
2023/12/06 11:40:11;;;;;;;12.60;10.27;;;3.00;97.70;;;;;;5104425;28;20492;-74
2023/12/06 11:42:38;;;;;;;13.52;10.98;;;3.00;97.60;;;;;;5105078;28;20404;-74
2023/12/06 11:45:24;;;;;;;13.43;10.73;;;3.10;97.70;;;;;;5106984;28;20408;-74
2023/12/06 11:47:52;;;;;;;14.00;10.83;;;3.10;97.70;;;;;;5104019;28;20406;-74
2023/12/06 11:50:18;;;;;;;12.18;10.45;;;3.10;97.70;;;;;;5090065;28;20962;-74
2023/12/06 11:52:49;;;;;;;12.98;10.45;;;3.20;97.70;;;;;;5103926;28;20408;-74
2023/12/06 11:55:18;;;;;;;13.25;10.80;;;3.20;97.70;;;;;;5096323;28;20402;-74
2023/12/06 11:58:06;;;;;;;12.38;9.88;;;3.20;97.60;;;;;;5103584;28;20397;-74
2023/12/06 12:00:32;;;;;;;14.10;10.27;;;3.30;97.60;;;;;;5104470;28;20786;-74
2023/12/06 12:03:04;;;;;;;12.57;9.43;;;3.30;97.50;;;;;;5106819;28;20401;-74
2023/12/06 12:05:31;;;;;;;12.43;9.85;;;3.30;97.40;;;;;;5103713;28;20398;-74
2023/12/06 12:08:01;;;;;;;11.43;9.48;;;3.30;97.40;;;;;;5106913;28;20826;-74
2023/12/06 12:10:27;;;;;;;10.52;9.38;;;3.30;97.30;;;;;;5101864;28;20410;-74
2023/12/06 12:12:53;;;;;;;10.32;8.88;;;3.30;97.20;;;;;;5097582;28;20404;-74
2023/12/06 12:15:19;;;;;;;11.40;9.00;;;3.30;97.10;;;;;;5101943;28;20460;-74
2023/12/06 12:17:45;;;;;;;13.00;9.17;;;3.30;96.90;;;;;;5097663;28;20400;-74
2023/12/06 12:20:14;;;;;;;13.23;8.80;;;3.30;96.90;;;;;;5105383;28;20530;-74
2023/12/06 12:22:47;;;;;;;12.63;8.85;;;3.30;96.80;;;;;;5107947;28;20453;-74
2023/12/06 12:25:14;;;;;;;10.93;8.90;;;3.20;96.70;;;;;;5102113;28;20398;-74
2023/12/06 12:27:40;;;;;;;12.05;8.98;;;3.20;96.70;;;;;;5099553;28;21562;-74
2023/12/06 12:30:09;;;;;;;12.40;8.52;;;3.20;96.60;;;;;;5104069;28;20404;-74
2023/12/06 12:32:49;;;;;;;10.10;8.35;;;3.20;96.60;;;;;;5106497;28;20412;-74
2023/12/06 12:35:15;;;;;;;11.38;8.70;;;3.20;96.60;;;;;;5102742;28;20400;-74